createdAt,value
2022-07-28T00:04:03.059Z,87.20
2022-07-28T00:14:05.544Z,87.82
2022-07-28T00:24:07.934Z,87.50
2022-07-28T00:34:10.389Z,87.87
2022-07-28T00:44:13.031Z,88.73
2022-07-28T00:54:15.691Z,89.45
2022-07-28T01:04:18.788Z,89.95
2022-07-28T01:14:32.766Z,90.90
2022-07-28T01:25:00.737Z,91.47
2022-07-28T01:35:32.349Z,91.66
2022-07-28T01:45:35.402Z,92.22
2022-07-28T01:55:39.527Z,92.30
2022-07-28T02:05:43.844Z,92.54
2022-07-28T02:15:47.076Z,91.73
2022-07-28T02:25:51.675Z,92.19
2022-07-28T02:35:57.583Z,92.06
2022-07-28T02:46:10.718Z,92.19
2022-07-28T02:56:13.295Z,92.34
2022-07-28T03:06:19.905Z,92.94
2022-07-28T03:16:30.588Z,93.13
2022-07-28T03:26:43.680Z,93.22
2022-07-28T03:36:50.373Z,92.96
2022-07-28T03:46:52.650Z,92.86
2022-07-28T03:56:54.930Z,93.43
2022-07-28T04:06:57.172Z,94.10
2022-07-28T04:16:59.395Z,94.27
2022-07-28T04:27:01.740Z,94.69
2022-07-28T04:37:04.435Z,94.77
2022-07-28T04:47:07.443Z,94.39
2022-07-28T04:57:12.726Z,94.00
2022-07-28T05:07:15.348Z,93.84
2022-07-28T05:17:17.510Z,93.79
2022-07-28T05:27:19.748Z,92.62
2022-07-28T05:37:22.304Z,91.72
2022-07-28T05:47:24.503Z,89.17
2022-07-28T05:57:26.777Z,87.83
2022-07-28T06:07:43.036Z,85.77
2022-07-28T06:17:47.440Z,82.88
2022-07-28T06:27:51.529Z,81.05
2022-07-28T06:37:53.959Z,77.37
2022-07-28T06:47:57.401Z,75.47
2022-07-28T06:57:59.679Z,70.64
2022-07-28T07:08:04.009Z,68.86
2022-07-28T07:18:06.612Z,66.07
2022-07-28T07:28:08.859Z,64.04
2022-07-28T07:38:11.882Z,61.89
2022-07-28T07:48:14.285Z,62.11
2022-07-28T07:58:16.758Z,58.82
2022-07-28T08:08:19.167Z,56.80
2022-07-28T08:18:21.717Z,56.48
2022-07-28T08:28:24.604Z,53.70
2022-07-28T08:38:27.637Z,52.55
2022-07-28T08:48:37.446Z,54.39
2022-07-28T08:58:40.336Z,52.10
2022-07-28T09:08:43.749Z,51.23
2022-07-28T09:18:46.057Z,50.70
2022-07-28T09:28:54.313Z,49.58
2022-07-28T09:38:57.775Z,48.00
2022-07-28T09:49:01.508Z,47.85
2022-07-28T09:59:08.758Z,45.56
2022-07-28T10:09:14.921Z,45.86
2022-07-28T10:19:17.649Z,48.97
2022-07-28T10:29:23.688Z,47.54
2022-07-28T10:39:41.189Z,50.29
2022-07-28T10:49:43.912Z,47.06
2022-07-28T11:00:25.847Z,46.86
2022-07-28T11:10:30.970Z,44.88
2022-07-28T11:20:52.992Z,45.69
2022-07-28T11:30:59.409Z,43.29
2022-07-28T11:41:01.888Z,38.87
2022-07-28T11:51:05.490Z,44.74
2022-07-28T12:01:18.157Z,40.45
2022-07-28T12:11:21.552Z,41.72
2022-07-28T12:21:46.618Z,38.22
2022-07-28T12:32:00.045Z,36.31
2022-07-28T12:42:10.465Z,36.85
2022-07-28T12:52:22.033Z,35.97
2022-07-28T13:02:37.926Z,35.47
2022-07-28T13:12:40.650Z,35.56
2022-07-28T13:22:45.991Z,35.13
2022-07-28T13:32:48.816Z,32.54
2022-07-28T13:42:53.358Z,30.50
2022-07-28T13:52:59.651Z,31.06
2022-07-28T14:03:02.861Z,30.13
2022-07-28T14:13:05.846Z,32.13
2022-07-28T14:23:09.224Z,34.84
2022-07-28T14:33:12.200Z,34.28
2022-07-28T14:43:14.824Z,33.46
2022-07-28T14:53:17.520Z,35.82
2022-07-28T15:03:20.399Z,36.35
2022-07-28T15:13:23.955Z,37.59
2022-07-28T15:23:26.933Z,40.45
2022-07-28T15:33:29.419Z,42.15
2022-07-28T15:43:34.983Z,40.22
2022-07-28T15:53:38.150Z,39.81
2022-07-28T16:03:43.755Z,45.64
2022-07-28T16:13:48.015Z,44.96
2022-07-28T16:23:52.493Z,47.21
2022-07-28T16:33:57.762Z,49.70
2022-07-28T16:44:01.533Z,51.81
2022-07-28T16:54:04.208Z,54.99
2022-07-28T17:04:07.823Z,55.70
2022-07-28T17:14:11.907Z,58.32
2022-07-28T17:24:15.202Z,56.96
2022-07-28T17:34:18.509Z,56.93
2022-07-28T17:44:21.914Z,59.81
2022-07-28T17:54:25.340Z,60.28
2022-07-28T18:04:27.715Z,60.22
2022-07-28T18:14:30.787Z,61.29
2022-07-28T18:24:33.203Z,63.60
2022-07-28T18:34:37.170Z,65.39
2022-07-28T18:44:39.721Z,66.72
2022-07-28T18:54:43.852Z,68.09
2022-07-28T19:04:47.757Z,69.04
2022-07-28T19:14:50.004Z,70.93
2022-07-28T19:24:55.487Z,71.80
2022-07-28T19:35:18.909Z,71.61
2022-07-28T19:45:21.548Z,73.11
2022-07-28T19:55:24.571Z,74.80
2022-07-28T20:05:28.195Z,75.46
2022-07-28T20:15:31.175Z,78.25
2022-07-28T20:25:33.632Z,78.64
2022-07-28T20:35:36.965Z,78.09
2022-07-28T20:45:39.154Z,79.48
2022-07-28T20:55:41.467Z,78.54
2022-07-28T21:05:44.395Z,79.02
2022-07-28T21:15:47.080Z,79.82
2022-07-28T21:25:51.253Z,78.60
2022-07-28T21:35:53.976Z,80.63
2022-07-28T21:45:56.515Z,80.94
2022-07-28T21:55:59.208Z,80.29
2022-07-28T22:06:01.977Z,79.75
2022-07-28T22:16:05.374Z,81.61
2022-07-28T22:26:08.210Z,81.83
2022-07-28T22:36:10.656Z,83.05
2022-07-28T22:46:13.242Z,83.05
2022-07-28T23:06:36.955Z,84.04
2022-07-28T23:16:39.371Z,83.63
2022-07-28T23:26:41.858Z,84.15
2022-07-28T23:36:45.371Z,82.91
2022-07-28T23:46:47.872Z,82.40
2022-07-28T23:56:52.287Z,81.42
